sensor_id;sensor_type;location;lat;lon;timestamp;temperature;humidity
16491;DHT22;8356;51.214;3.270;2022-10-30T00:01:56;436.10;2355.20
16491;DHT22;8356;51.214;3.270;2022-10-30T00:04:22;436.00;2355.20
16491;DHT22;8356;51.214;3.270;2022-10-30T00:06:48;436.00;2355.20
16491;DHT22;8356;51.214;3.270;2022-10-30T00:09:14;436.00;2355.20
16491;DHT22;8356;51.214;3.270;2022-10-30T00:11:40;436.00;2355.20
16491;DHT22;8356;51.214;3.270;2022-10-30T00:14:07;460.80;2380.80
16491;DHT22;8356;51.214;3.270;2022-10-30T00:16:35;436.00;2355.20
16491;DHT22;8356;51.214;3.270;2022-10-30T00:19:01;436.00;2355.20
16491;DHT22;8356;51.214;3.270;2022-10-30T00:21:26;435.90;2355.20
16491;DHT22;8356;51.214;3.270;2022-10-30T00:23:52;435.90;2355.20
16491;DHT22;8356;51.214;3.270;2022-10-30T00:26:20;435.90;2355.20
16491;DHT22;8356;51.214;3.270;2022-10-30T00:28:53;435.90;2355.20
16491;DHT22;8356;51.214;3.270;2022-10-30T00:31:20;435.80;2355.20
16491;DHT22;8356;51.214;3.270;2022-10-30T00:33:51;435.80;2355.20
16491;DHT22;8356;51.214;3.270;2022-10-30T00:36:16;435.80;2355.20
16491;DHT22;8356;51.214;3.270;2022-10-30T00:38:45;435.80;2355.20
16491;DHT22;8356;51.214;3.270;2022-10-30T00:41:15;435.80;2355.20
16491;DHT22;8356;51.214;3.270;2022-10-30T00:43:41;435.80;2355.20
16491;DHT22;8356;51.214;3.270;2022-10-30T00:46:32;435.80;2355.20
16491;DHT22;8356;51.214;3.270;2022-10-30T00:49:07;435.80;2355.20
16491;DHT22;8356;51.214;3.270;2022-10-30T00:51:37;435.80;2355.20
16491;DHT22;8356;51.214;3.270;2022-10-30T00:54:05;435.80;2355.20
16491;DHT22;8356;51.214;3.270;2022-10-30T00:56:31;435.80;2355.20
16491;DHT22;8356;51.214;3.270;2022-10-30T00:59:09;435.90;2355.20
16491;DHT22;8356;51.214;3.270;2022-10-30T01:01:43;435.80;2355.20
16491;DHT22;8356;51.214;3.270;2022-10-30T01:04:14;435.80;2355.20
16491;DHT22;8356;51.214;3.270;2022-10-30T01:06:44;435.80;2355.20
16491;DHT22;8356;51.214;3.270;2022-10-30T01:09:13;435.70;2355.20
16491;DHT22;8356;51.214;3.270;2022-10-30T01:11:39;435.60;2355.20
16491;DHT22;8356;51.214;3.270;2022-10-30T01:14:06;435.70;2355.20
16491;DHT22;8356;51.214;3.270;2022-10-30T01:31:38;435.50;2355.20
16491;DHT22;8356;51.214;3.270;2022-10-30T01:37:40;435.50;2355.20
16491;DHT22;8356;51.214;3.270;2022-10-30T01:40:14;435.40;2355.20
16491;DHT22;8356;51.214;3.270;2022-10-30T01:42:53;435.40;2355.20
16491;DHT22;8356;51.214;3.270;2022-10-30T01:50:54;435.50;2355.20
16491;DHT22;8356;51.214;3.270;2022-10-30T01:58:50;435.40;2355.20
16491;DHT22;8356;51.214;3.270;2022-10-30T02:01:20;435.40;2355.20
16491;DHT22;8356;51.214;3.270;2022-10-30T02:03:47;435.40;2355.20
16491;DHT22;8356;51.214;3.270;2022-10-30T02:06:13;435.50;2355.20
16491;DHT22;8356;51.214;3.270;2022-10-30T02:08:38;435.30;2355.20
16491;DHT22;8356;51.214;3.270;2022-10-30T02:11:04;435.20;2355.20
16491;DHT22;8356;51.214;3.270;2022-10-30T02:13:30;435.20;2355.20
16491;DHT22;8356;51.214;3.270;2022-10-30T02:15:57;435.20;2355.20
16491;DHT22;8356;51.214;3.270;2022-10-30T02:18:23;435.20;2355.20
16491;DHT22;8356;51.214;3.270;2022-10-30T02:20:50;410.50;2355.20
16491;DHT22;8356;51.214;3.270;2022-10-30T02:23:15;435.30;2355.20
16491;DHT22;8356;51.214;3.270;2022-10-30T02:25:44;435.20;2355.20
16491;DHT22;8356;51.214;3.270;2022-10-30T02:28:10;435.20;2355.20
16491;DHT22;8356;51.214;3.270;2022-10-30T02:30:36;410.50;2355.20
16491;DHT22;8356;51.214;3.270;2022-10-30T02:33:01;435.20;2355.20
16491;DHT22;8356;51.214;3.270;2022-10-30T02:35:28;435.20;2355.20
16491;DHT22;8356;51.214;3.270;2022-10-30T02:37:54;435.20;2355.20
16491;DHT22;8356;51.214;3.270;2022-10-30T02:40:20;435.20;2355.20
16491;DHT22;8356;51.214;3.270;2022-10-30T02:42:51;435.20;2355.20
16491;DHT22;8356;51.214;3.270;2022-10-30T02:45:17;410.50;2355.20
16491;DHT22;8356;51.214;3.270;2022-10-30T02:47:42;435.20;2355.20
16491;DHT22;8356;51.214;3.270;2022-10-30T02:50:08;435.20;2355.20
16491;DHT22;8356;51.214;3.270;2022-10-30T02:52:34;435.20;2355.20
16491;DHT22;8356;51.214;3.270;2022-10-30T02:54:59;435.30;2355.20
16491;DHT22;8356;51.214;3.270;2022-10-30T02:57:25;435.30;2355.20
16491;DHT22;8356;51.214;3.270;2022-10-30T02:59:51;435.30;2355.20
16491;DHT22;8356;51.214;3.270;2022-10-30T03:02:16;435.30;2355.20
16491;DHT22;8356;51.214;3.270;2022-10-30T03:04:42;435.30;2355.20
16491;DHT22;8356;51.214;3.270;2022-10-30T03:07:07;435.30;2355.20
16491;DHT22;8356;51.214;3.270;2022-10-30T03:09:33;435.30;2355.20
16491;DHT22;8356;51.214;3.270;2022-10-30T03:11:59;435.30;2355.20
16491;DHT22;8356;51.214;3.270;2022-10-30T03:14:24;435.30;2355.20
16491;DHT22;8356;51.214;3.270;2022-10-30T03:16:50;435.30;2355.20
16491;DHT22;8356;51.214;3.270;2022-10-30T03:19:17;435.30;2355.20
16491;DHT22;8356;51.214;3.270;2022-10-30T03:21:43;435.20;2355.20
16491;DHT22;8356;51.214;3.270;2022-10-30T03:24:09;435.20;2355.20
16491;DHT22;8356;51.214;3.270;2022-10-30T03:26:34;435.20;2355.20
16491;DHT22;8356;51.214;3.270;2022-10-30T03:29:00;435.20;2355.20
16491;DHT22;8356;51.214;3.270;2022-10-30T03:31:26;435.20;2355.20
16491;DHT22;8356;51.214;3.270;2022-10-30T03:33:51;435.20;2355.20
16491;DHT22;8356;51.214;3.270;2022-10-30T03:36:17;435.20;2355.20
16491;DHT22;8356;51.214;3.270;2022-10-30T03:38:43;410.50;2355.20
16491;DHT22;8356;51.214;3.270;2022-10-30T03:41:08;435.20;2355.20
16491;DHT22;8356;51.214;3.270;2022-10-30T03:43:34;435.20;2355.20
16491;DHT22;8356;51.214;3.270;2022-10-30T03:45:59;435.20;2355.20
16491;DHT22;8356;51.214;3.270;2022-10-30T03:48:27;435.30;2355.20
16491;DHT22;8356;51.214;3.270;2022-10-30T03:50:56;435.20;2355.20
16491;DHT22;8356;51.214;3.270;2022-10-30T03:53:23;435.20;2355.20
16491;DHT22;8356;51.214;3.270;2022-10-30T03:55:51;435.20;2355.20
16491;DHT22;8356;51.214;3.270;2022-10-30T03:58:17;410.50;2355.20
16491;DHT22;8356;51.214;3.270;2022-10-30T04:00:42;410.50;2355.20
16491;DHT22;8356;51.214;3.270;2022-10-30T04:03:09;410.50;2355.20
16491;DHT22;8356;51.214;3.270;2022-10-30T04:05:35;410.50;2355.20
16491;DHT22;8356;51.214;3.270;2022-10-30T04:08:04;410.50;2355.20
16491;DHT22;8356;51.214;3.270;2022-10-30T04:10:32;410.40;2355.20
16491;DHT22;8356;51.214;3.270;2022-10-30T04:13:02;410.30;2355.20
16491;DHT22;8356;51.214;3.270;2022-10-30T04:15:28;410.30;2355.20
16491;DHT22;8356;51.214;3.270;2022-10-30T04:17:54;410.30;2355.20
16491;DHT22;8356;51.214;3.270;2022-10-30T04:20:21;410.30;2355.20
16491;DHT22;8356;51.214;3.270;2022-10-30T04:22:47;410.30;2355.20
16491;DHT22;8356;51.214;3.270;2022-10-30T04:25:12;410.30;2355.20
16491;DHT22;8356;51.214;3.270;2022-10-30T04:27:42;410.30;2355.20
16491;DHT22;8356;51.214;3.270;2022-10-30T04:30:11;410.30;2355.20
16491;DHT22;8356;51.214;3.270;2022-10-30T04:32:48;410.20;2355.20
16491;DHT22;8356;51.214;3.270;2022-10-30T04:35:15;410.20;2355.20
16491;DHT22;8356;51.214;3.270;2022-10-30T04:37:41;410.20;2355.20
16491;DHT22;8356;51.214;3.270;2022-10-30T04:40:08;410.20;2355.20
16491;DHT22;8356;51.214;3.270;2022-10-30T04:42:33;410.20;2355.20
16491;DHT22;8356;51.214;3.270;2022-10-30T04:44:59;410.10;2355.20
16491;DHT22;8356;51.214;3.270;2022-10-30T04:47:27;410.10;2355.20
16491;DHT22;8356;51.214;3.270;2022-10-30T04:49:53;410.20;2355.20
16491;DHT22;8356;51.214;3.270;2022-10-30T04:52:19;410.20;2355.20
16491;DHT22;8356;51.214;3.270;2022-10-30T04:54:44;410.20;2355.20
16491;DHT22;8356;51.214;3.270;2022-10-30T04:57:10;410.20;2355.20
16491;DHT22;8356;51.214;3.270;2022-10-30T04:59:36;410.20;2355.20
16491;DHT22;8356;51.214;3.270;2022-10-30T05:02:01;410.20;2355.20
16491;DHT22;8356;51.214;3.270;2022-10-30T05:04:27;410.20;2355.20
16491;DHT22;8356;51.214;3.270;2022-10-30T05:06:53;410.20;2355.20
16491;DHT22;8356;51.214;3.270;2022-10-30T05:09:18;410.20;2355.20
16491;DHT22;8356;51.214;3.270;2022-10-30T05:11:44;410.20;2355.20
16491;DHT22;8356;51.214;3.270;2022-10-30T05:14:10;410.20;2355.20
16491;DHT22;8356;51.214;3.270;2022-10-30T05:16:35;410.30;2355.20
16491;DHT22;8356;51.214;3.270;2022-10-30T05:19:01;410.30;2355.20
16491;DHT22;8356;51.214;3.270;2022-10-30T05:21:26;410.30;2355.20
16491;DHT22;8356;51.214;3.270;2022-10-30T05:23:52;410.30;2355.20
16491;DHT22;8356;51.214;3.270;2022-10-30T05:26:18;410.30;2355.20
16491;DHT22;8356;51.214;3.270;2022-10-30T05:28:44;435.40;2355.20
16491;DHT22;8356;51.214;3.270;2022-10-30T05:31:09;410.30;2355.20
16491;DHT22;8356;51.214;3.270;2022-10-30T05:33:35;410.30;2355.20
16491;DHT22;8356;51.214;3.270;2022-10-30T05:36:01;410.30;2355.20
16491;DHT22;8356;51.214;3.270;2022-10-30T05:38:26;410.30;2355.20
16491;DHT22;8356;51.214;3.270;2022-10-30T05:40:52;410.30;2355.20
16491;DHT22;8356;51.214;3.270;2022-10-30T05:43:17;410.20;2355.20
16491;DHT22;8356;51.214;3.270;2022-10-30T05:45:43;410.30;2355.20
16491;DHT22;8356;51.214;3.270;2022-10-30T05:48:09;410.30;2355.20
16491;DHT22;8356;51.214;3.270;2022-10-30T05:50:34;410.30;2355.20
16491;DHT22;8356;51.214;3.270;2022-10-30T05:53:02;410.30;2355.20
16491;DHT22;8356;51.214;3.270;2022-10-30T05:55:28;410.20;2355.20
16491;DHT22;8356;51.214;3.270;2022-10-30T05:57:58;410.30;2355.20
16491;DHT22;8356;51.214;3.270;2022-10-30T06:00:26;410.20;2355.20
16491;DHT22;8356;51.214;3.270;2022-10-30T06:03:01;410.10;2355.20
16491;DHT22;8356;51.214;3.270;2022-10-30T06:05:29;410.20;2355.20
16491;DHT22;8356;51.214;3.270;2022-10-30T06:07:56;410.20;2355.20
16491;DHT22;8356;51.214;3.270;2022-10-30T06:10:22;410.10;2355.20
16491;DHT22;8356;51.214;3.270;2022-10-30T06:12:55;410.10;2355.20
16491;DHT22;8356;51.214;3.270;2022-10-30T06:15:21;410.00;2355.20
16491;DHT22;8356;51.214;3.270;2022-10-30T06:17:46;410.00;2355.20
16491;DHT22;8356;51.214;3.270;2022-10-30T06:20:12;410.00;2355.20
16491;DHT22;8356;51.214;3.270;2022-10-30T06:22:38;410.00;2355.20
16491;DHT22;8356;51.214;3.270;2022-10-30T06:25:03;410.00;2355.20
16491;DHT22;8356;51.214;3.270;2022-10-30T06:27:29;410.00;2355.20
16491;DHT22;8356;51.214;3.270;2022-10-30T06:29:55;410.00;2355.20
16491;DHT22;8356;51.214;3.270;2022-10-30T06:32:21;410.00;2355.20
16491;DHT22;8356;51.214;3.270;2022-10-30T06:34:46;410.00;2355.20
16491;DHT22;8356;51.214;3.270;2022-10-30T06:37:12;409.90;2355.20
16491;DHT22;8356;51.214;3.270;2022-10-30T06:39:38;409.90;2355.20
16491;DHT22;8356;51.214;3.270;2022-10-30T06:42:04;409.90;2355.20
16491;DHT22;8356;51.214;3.270;2022-10-30T06:44:29;410.00;2355.20
16491;DHT22;8356;51.214;3.270;2022-10-30T06:46:55;410.00;2355.20
16491;DHT22;8356;51.214;3.270;2022-10-30T06:49:20;410.00;2355.20
16491;DHT22;8356;51.214;3.270;2022-10-30T06:51:47;410.10;2355.20
16491;DHT22;8356;51.214;3.270;2022-10-30T06:54:13;410.00;2355.20
16491;DHT22;8356;51.214;3.270;2022-10-30T06:56:39;410.00;2355.20
16491;DHT22;8356;51.214;3.270;2022-10-30T06:59:04;410.10;2355.20
16491;DHT22;8356;51.214;3.270;2022-10-30T07:01:30;410.10;2355.20
16491;DHT22;8356;51.214;3.270;2022-10-30T07:03:56;410.10;2355.20
16491;DHT22;8356;51.214;3.270;2022-10-30T07:06:21;410.10;2355.20
16491;DHT22;8356;51.214;3.270;2022-10-30T07:08:47;410.10;2355.20
16491;DHT22;8356;51.214;3.270;2022-10-30T07:11:13;410.10;2355.20
16491;DHT22;8356;51.214;3.270;2022-10-30T07:13:38;410.10;2355.20
16491;DHT22;8356;51.214;3.270;2022-10-30T07:16:04;410.20;2355.20
16491;DHT22;8356;51.214;3.270;2022-10-30T07:18:30;410.20;2355.20
16491;DHT22;8356;51.214;3.270;2022-10-30T07:20:56;410.20;2355.20
16491;DHT22;8356;51.214;3.270;2022-10-30T07:23:22;410.20;2355.20
16491;DHT22;8356;51.214;3.270;2022-10-30T07:25:48;410.20;2355.20
16491;DHT22;8356;51.214;3.270;2022-10-30T07:28:13;410.10;2355.20
16491;DHT22;8356;51.214;3.270;2022-10-30T07:30:39;410.20;2355.20
16491;DHT22;8356;51.214;3.270;2022-10-30T07:33:05;410.30;2355.20
16491;DHT22;8356;51.214;3.270;2022-10-30T07:35:33;410.30;2355.20
16491;DHT22;8356;51.214;3.270;2022-10-30T07:38:10;410.30;2355.20
16491;DHT22;8356;51.214;3.270;2022-10-30T07:40:37;410.30;2355.20
16491;DHT22;8356;51.214;3.270;2022-10-30T07:43:04;410.30;2355.20
16491;DHT22;8356;51.214;3.270;2022-10-30T07:45:30;410.40;2355.20
16491;DHT22;8356;51.214;3.270;2022-10-30T07:47:56;410.40;2355.20
16491;DHT22;8356;51.214;3.270;2022-10-30T07:50:22;410.50;2355.20
16491;DHT22;8356;51.214;3.270;2022-10-30T07:52:48;435.20;2355.20
16491;DHT22;8356;51.214;3.270;2022-10-30T07:55:14;410.50;2355.20
16491;DHT22;8356;51.214;3.270;2022-10-30T07:57:41;435.20;2355.20
16491;DHT22;8356;51.214;3.270;2022-10-30T08:00:09;435.20;2355.20
16491;DHT22;8356;51.214;3.270;2022-10-30T08:02:35;435.30;2355.20
16491;DHT22;8356;51.214;3.270;2022-10-30T08:05:01;435.40;2355.20
16491;DHT22;8356;51.214;3.270;2022-10-30T08:07:35;435.50;2355.20
16491;DHT22;8356;51.214;3.270;2022-10-30T08:10:02;435.50;2355.20
16491;DHT22;8356;51.214;3.270;2022-10-30T08:12:28;435.60;2355.20
16491;DHT22;8356;51.214;3.270;2022-10-30T08:14:54;435.60;2355.20
16491;DHT22;8356;51.214;3.270;2022-10-30T08:17:20;435.80;2355.20
16491;DHT22;8356;51.214;3.270;2022-10-30T08:19:46;435.80;2355.20
16491;DHT22;8356;51.214;3.270;2022-10-30T08:22:12;435.90;2355.20
16491;DHT22;8356;51.214;3.270;2022-10-30T08:24:38;436.00;2355.20
16491;DHT22;8356;51.214;3.270;2022-10-30T08:27:04;436.10;2355.20
16491;DHT22;8356;51.214;3.270;2022-10-30T08:29:30;436.10;2355.20
16491;DHT22;8356;51.214;3.270;2022-10-30T08:31:56;460.80;2380.80
16491;DHT22;8356;51.214;3.270;2022-10-30T08:34:22;460.80;2380.80
16491;DHT22;8356;51.214;3.270;2022-10-30T08:36:49;460.80;2380.80
16491;DHT22;8356;51.214;3.270;2022-10-30T08:39:15;460.80;2380.80
16491;DHT22;8356;51.214;3.270;2022-10-30T08:41:41;460.80;2380.80
16491;DHT22;8356;51.214;3.270;2022-10-30T08:44:06;460.80;2380.80
16491;DHT22;8356;51.214;3.270;2022-10-30T08:46:32;460.80;2380.80
16491;DHT22;8356;51.214;3.270;2022-10-30T08:48:57;460.80;2380.80
16491;DHT22;8356;51.214;3.270;2022-10-30T08:51:23;460.80;2380.80
16491;DHT22;8356;51.214;3.270;2022-10-30T08:53:49;460.80;2380.80
16491;DHT22;8356;51.214;3.270;2022-10-30T08:56:16;460.80;2380.80
16491;DHT22;8356;51.214;3.270;2022-10-30T08:58:41;460.80;2380.80
16491;DHT22;8356;51.214;3.270;2022-10-30T09:01:07;461.00;2380.80
16491;DHT22;8356;51.214;3.270;2022-10-30T09:03:33;461.20;2380.80
16491;DHT22;8356;51.214;3.270;2022-10-30T09:05:59;461.40;2380.80
16491;DHT22;8356;51.214;3.270;2022-10-30T09:08:26;461.50;2380.80
16491;DHT22;8356;51.214;3.270;2022-10-30T09:10:57;461.60;2380.80
16491;DHT22;8356;51.214;3.270;2022-10-30T09:13:24;461.70;2380.80
16491;DHT22;8356;51.214;3.270;2022-10-30T09:15:50;486.40;2380.80
16491;DHT22;8356;51.214;3.270;2022-10-30T09:18:16;486.50;2380.80
16491;DHT22;8356;51.214;3.270;2022-10-30T09:20:42;486.50;2380.80
16491;DHT22;8356;51.214;3.270;2022-10-30T09:23:07;486.60;2380.80
16491;DHT22;8356;51.214;3.270;2022-10-30T09:25:33;486.60;2380.80
16491;DHT22;8356;51.214;3.270;2022-10-30T09:27:59;486.60;2380.80
16491;DHT22;8356;51.214;3.270;2022-10-30T09:30:24;486.70;2380.80
16491;DHT22;8356;51.214;3.270;2022-10-30T09:32:57;486.80;2380.80
16491;DHT22;8356;51.214;3.270;2022-10-30T09:35:23;486.90;2380.80
16491;DHT22;8356;51.214;3.270;2022-10-30T09:37:49;512.00;2380.80
16491;DHT22;8356;51.214;3.270;2022-10-30T09:42:58;487.30;2380.80
16491;DHT22;8356;51.214;3.270;2022-10-30T09:45:51;512.00;2380.80
16491;DHT22;8356;51.214;3.270;2022-10-30T09:54:22;512.10;2380.80
16491;DHT22;8356;51.214;3.270;2022-10-30T09:57:03;512.20;2380.80
16491;DHT22;8356;51.214;3.270;2022-10-30T09:59:46;512.20;2380.80
16491;DHT22;8356;51.214;3.270;2022-10-30T10:02:29;512.20;2380.80
16491;DHT22;8356;51.214;3.270;2022-10-30T10:07:41;512.20;2380.80
16491;DHT22;8356;51.214;3.270;2022-10-30T10:10:24;512.20;2380.80
16491;DHT22;8356;51.214;3.270;2022-10-30T10:12:53;512.30;2380.80
16491;DHT22;8356;51.214;3.270;2022-10-30T10:15:39;512.30;2380.80
16491;DHT22;8356;51.214;3.270;2022-10-30T10:18:21;512.30;2380.80
16491;DHT22;8356;51.214;3.270;2022-10-30T10:20:52;512.40;2380.80
16491;DHT22;8356;51.214;3.270;2022-10-30T10:23:31;512.50;2380.80
16491;DHT22;8356;51.214;3.270;2022-10-30T10:26:06;512.60;2380.80
16491;DHT22;8356;51.214;3.270;2022-10-30T10:28:51;512.60;2380.80
16491;DHT22;8356;51.214;3.270;2022-10-30T10:51:55;512.70;2380.80
16491;DHT22;8356;51.214;3.270;2022-10-30T10:56:53;537.60;2406.40
16491;DHT22;8356;51.214;3.270;2022-10-30T11:04:35;537.70;2406.40
16491;DHT22;8356;51.214;3.270;2022-10-30T11:09:44;537.60;2406.40
16491;DHT22;8356;51.214;3.270;2022-10-30T11:12:11;537.60;2406.40
16491;DHT22;8356;51.214;3.270;2022-10-30T11:14:37;512.90;2380.80
16491;DHT22;8356;51.214;3.270;2022-10-30T11:17:18;512.90;2380.80
16491;DHT22;8356;51.214;3.270;2022-10-30T11:19:48;512.30;2380.80
16491;DHT22;8356;51.214;3.270;2022-10-30T11:22:37;512.80;2380.80
16491;DHT22;8356;51.214;3.270;2022-10-30T11:27:47;512.80;2380.80
16491;DHT22;8356;51.214;3.270;2022-10-30T11:30:18;512.80;2380.80
16491;DHT22;8356;51.214;3.270;2022-10-30T11:32:44;512.80;2380.80
16491;DHT22;8356;51.214;3.270;2022-10-30T11:35:13;512.90;2380.80
16491;DHT22;8356;51.214;3.270;2022-10-30T11:37:41;512.90;2380.80
16491;DHT22;8356;51.214;3.270;2022-10-30T11:45:24;537.60;2406.40
16491;DHT22;8356;51.214;3.270;2022-10-30T11:47:51;537.70;2406.40
16491;DHT22;8356;51.214;3.270;2022-10-30T11:50:21;537.70;2406.40
16491;DHT22;8356;51.214;3.270;2022-10-30T11:52:56;537.70;2406.40
16491;DHT22;8356;51.214;3.270;2022-10-30T11:55:36;537.80;2406.40
16491;DHT22;8356;51.214;3.270;2022-10-30T11:58:05;537.80;2406.40
16491;DHT22;8356;51.214;3.270;2022-10-30T12:00:33;537.80;2406.40
16491;DHT22;8356;51.214;3.270;2022-10-30T12:03:00;537.80;2406.40
16491;DHT22;8356;51.214;3.270;2022-10-30T12:05:45;538.00;2406.40
16491;DHT22;8356;51.214;3.270;2022-10-30T12:08:17;538.10;2406.40
16491;DHT22;8356;51.214;3.270;2022-10-30T12:13:20;538.30;2406.40
16491;DHT22;8356;51.214;3.270;2022-10-30T12:15:49;538.40;2406.40
16491;DHT22;8356;51.214;3.270;2022-10-30T12:18:20;538.40;2406.40
16491;DHT22;8356;51.214;3.270;2022-10-30T12:20:54;538.30;2406.40
16491;DHT22;8356;51.214;3.270;2022-10-30T12:23:23;538.20;2406.40
16491;DHT22;8356;51.214;3.270;2022-10-30T12:25:55;538.30;2406.40
16491;DHT22;8356;51.214;3.270;2022-10-30T12:28:24;538.30;2406.40
16491;DHT22;8356;51.214;3.270;2022-10-30T12:30:53;538.30;2406.40
16491;DHT22;8356;51.214;3.270;2022-10-30T12:33:26;538.10;2406.40
16491;DHT22;8356;51.214;3.270;2022-10-30T12:35:58;538.00;2406.40
16491;DHT22;8356;51.214;3.270;2022-10-30T12:43:44;537.90;2406.40
16491;DHT22;8356;51.214;3.270;2022-10-30T12:46:33;538.10;2406.40
16491;DHT22;8356;51.214;3.270;2022-10-30T12:49:21;538.00;2406.40
16491;DHT22;8356;51.214;3.270;2022-10-30T12:52:28;537.80;2406.40
16491;DHT22;8356;51.214;3.270;2022-10-30T13:00:20;537.60;2406.40
16491;DHT22;8356;51.214;3.270;2022-10-30T13:05:52;512.50;2380.80
16491;DHT22;8356;51.214;3.270;2022-10-30T13:14:01;512.10;2380.80
16491;DHT22;8356;51.214;3.270;2022-10-30T13:16:29;512.10;2380.80
16491;DHT22;8356;51.214;3.270;2022-10-30T13:18:58;512.10;2380.80
16491;DHT22;8356;51.214;3.270;2022-10-30T13:27:00;512.00;2380.80
16491;DHT22;8356;51.214;3.270;2022-10-30T13:34:36;512.00;2380.80
16491;DHT22;8356;51.214;3.270;2022-10-30T13:37:35;487.30;2380.80
16491;DHT22;8356;51.214;3.270;2022-10-30T13:54:21;512.20;2380.80
16491;DHT22;8356;51.214;3.270;2022-10-30T13:56:48;512.20;2380.80
16491;DHT22;8356;51.214;3.270;2022-10-30T14:02:46;512.10;2380.80
16491;DHT22;8356;51.214;3.270;2022-10-30T14:10:47;512.00;2380.80
16491;DHT22;8356;51.214;3.270;2022-10-30T14:13:20;512.00;2380.80
16491;DHT22;8356;51.214;3.270;2022-10-30T14:15:46;512.10;2380.80
16491;DHT22;8356;51.214;3.270;2022-10-30T14:20:38;512.30;2380.80
16491;DHT22;8356;51.214;3.270;2022-10-30T14:23:38;512.40;2380.80
16491;DHT22;8356;51.214;3.270;2022-10-30T14:28:43;512.50;2380.80
16491;DHT22;8356;51.214;3.270;2022-10-30T14:31:17;512.60;2380.80
16491;DHT22;8356;51.214;3.270;2022-10-30T14:33:52;512.50;2380.80
16491;DHT22;8356;51.214;3.270;2022-10-30T14:58:39;512.30;2380.80
16491;DHT22;8356;51.214;3.270;2022-10-30T15:03:46;512.10;2380.80
16491;DHT22;8356;51.214;3.270;2022-10-30T15:14:18;512.10;2380.80
16491;DHT22;8356;51.214;3.270;2022-10-30T15:16:48;512.10;2380.80
16491;DHT22;8356;51.214;3.270;2022-10-30T15:19:15;512.00;2380.80
16491;DHT22;8356;51.214;3.270;2022-10-30T15:21:44;487.30;2380.80
16491;DHT22;8356;51.214;3.270;2022-10-30T15:24:15;487.20;2380.80
16491;DHT22;8356;51.214;3.270;2022-10-30T15:26:46;487.30;2380.80
16491;DHT22;8356;51.214;3.270;2022-10-30T15:29:18;487.30;2380.80
16491;DHT22;8356;51.214;3.270;2022-10-30T15:31:44;487.20;2380.80
16491;DHT22;8356;51.214;3.270;2022-10-30T15:34:20;487.20;2380.80
16491;DHT22;8356;51.214;3.270;2022-10-30T15:36:47;487.10;2380.80
16491;DHT22;8356;51.214;3.270;2022-10-30T15:39:17;487.20;2380.80
16491;DHT22;8356;51.214;3.270;2022-10-30T15:44:36;487.20;2380.80
16491;DHT22;8356;51.214;3.270;2022-10-30T15:47:01;487.20;2380.80
16491;DHT22;8356;51.214;3.270;2022-10-30T15:51:53;487.10;2380.80
16491;DHT22;8356;51.214;3.270;2022-10-30T15:54:20;487.10;2380.80
16491;DHT22;8356;51.214;3.270;2022-10-30T15:56:47;487.10;2380.80
16491;DHT22;8356;51.214;3.270;2022-10-30T15:59:26;487.10;2380.80
16491;DHT22;8356;51.214;3.270;2022-10-30T16:01:54;487.20;2380.80
16491;DHT22;8356;51.214;3.270;2022-10-30T16:04:26;487.10;2380.80
16491;DHT22;8356;51.214;3.270;2022-10-30T16:06:57;487.10;2380.80
16491;DHT22;8356;51.214;3.270;2022-10-30T16:09:25;487.00;2380.80
16491;DHT22;8356;51.214;3.270;2022-10-30T16:11:51;487.10;2380.80
16491;DHT22;8356;51.214;3.270;2022-10-30T16:14:26;486.90;2380.80
16491;DHT22;8356;51.214;3.270;2022-10-30T16:16:52;486.90;2380.80
16491;DHT22;8356;51.214;3.270;2022-10-30T16:19:28;486.80;2380.80
16491;DHT22;8356;51.214;3.270;2022-10-30T16:21:55;486.80;2380.80
16491;DHT22;8356;51.214;3.270;2022-10-30T16:24:26;486.80;2380.80
16491;DHT22;8356;51.214;3.270;2022-10-30T16:29:37;486.70;2380.80
16491;DHT22;8356;51.214;3.270;2022-10-30T16:32:13;486.70;2380.80
16491;DHT22;8356;51.214;3.270;2022-10-30T16:34:40;486.60;2380.80
16491;DHT22;8356;51.214;3.270;2022-10-30T16:37:12;486.60;2380.80
16491;DHT22;8356;51.214;3.270;2022-10-30T16:39:39;486.60;2380.80
16491;DHT22;8356;51.214;3.270;2022-10-30T16:42:06;486.50;2380.80
16491;DHT22;8356;51.214;3.270;2022-10-30T16:44:40;486.40;2380.80
16491;DHT22;8356;51.214;3.270;2022-10-30T16:49:45;486.40;2380.80
16491;DHT22;8356;51.214;3.270;2022-10-30T16:52:13;461.70;2380.80
16491;DHT22;8356;51.214;3.270;2022-10-30T16:54:45;461.60;2380.80
16491;DHT22;8356;51.214;3.270;2022-10-30T16:57:25;461.60;2380.80
16491;DHT22;8356;51.214;3.270;2022-10-30T16:59:52;461.50;2380.80
16491;DHT22;8356;51.214;3.270;2022-10-30T17:02:24;461.50;2380.80
16491;DHT22;8356;51.214;3.270;2022-10-30T17:05:07;461.50;2380.80
16491;DHT22;8356;51.214;3.270;2022-10-30T17:07:36;461.50;2380.80
16491;DHT22;8356;51.214;3.270;2022-10-30T17:10:02;461.40;2380.80
16491;DHT22;8356;51.214;3.270;2022-10-30T17:12:29;461.40;2380.80
16491;DHT22;8356;51.214;3.270;2022-10-30T17:17:39;461.40;2380.80
16491;DHT22;8356;51.214;3.270;2022-10-30T17:22:46;461.30;2380.80
16491;DHT22;8356;51.214;3.270;2022-10-30T17:28:32;461.40;2380.80
16491;DHT22;8356;51.214;3.270;2022-10-30T17:31:18;461.20;2380.80
16491;DHT22;8356;51.214;3.270;2022-10-30T17:36:32;461.20;2380.80
16491;DHT22;8356;51.214;3.270;2022-10-30T17:38:57;461.40;2380.80
16491;DHT22;8356;51.214;3.270;2022-10-30T17:41:23;461.40;2380.80
16491;DHT22;8356;51.214;3.270;2022-10-30T17:43:51;461.30;2380.80
16491;DHT22;8356;51.214;3.270;2022-10-30T17:46:18;461.40;2380.80
16491;DHT22;8356;51.214;3.270;2022-10-30T17:48:43;461.40;2380.80
16491;DHT22;8356;51.214;3.270;2022-10-30T17:51:11;461.40;2380.80
16491;DHT22;8356;51.214;3.270;2022-10-30T17:53:37;461.40;2380.80
16491;DHT22;8356;51.214;3.270;2022-10-30T17:56:13;461.40;2380.80
16491;DHT22;8356;51.214;3.270;2022-10-30T17:58:39;461.20;2380.80
16491;DHT22;8356;51.214;3.270;2022-10-30T18:01:05;461.20;2380.80
16491;DHT22;8356;51.214;3.270;2022-10-30T18:03:31;461.10;2380.80
16491;DHT22;8356;51.214;3.270;2022-10-30T18:05:57;461.10;2380.80
16491;DHT22;8356;51.214;3.270;2022-10-30T18:08:25;461.10;2380.80
16491;DHT22;8356;51.214;3.270;2022-10-30T18:10:51;461.10;2380.80
16491;DHT22;8356;51.214;3.270;2022-10-30T18:13:17;461.10;2380.80
16491;DHT22;8356;51.214;3.270;2022-10-30T18:15:56;461.10;2380.80
16491;DHT22;8356;51.214;3.270;2022-10-30T18:18:22;461.00;2380.80
16491;DHT22;8356;51.214;3.270;2022-10-30T18:20:47;461.00;2380.80
16491;DHT22;8356;51.214;3.270;2022-10-30T18:23:21;461.00;2380.80
16491;DHT22;8356;51.214;3.270;2022-10-30T18:25:48;461.00;2380.80
16491;DHT22;8356;51.214;3.270;2022-10-30T18:28:14;461.00;2380.80